Time;durP1;ratioP1;P1;durP2;ratioP2;P2;SDS_P1;SDS_P2;PMS_P1;PMS_P2;Temp;Humidity;BMP_temperature;BMP_pressure;BME280_temperature;BME280_humidity;BME280_pressure;Samples;Min_cycle;Max_cycle;Signal;HPM_P1;HPM_P2
2023/04/30 00:00:15;;;;;;;2.77;2.53;;;;;;;;;;5051631;28;20469;-69
2023/04/30 00:02:42;;;;;;;5.60;2.23;;;;;;;;;;5050941;28;20469;-68
2023/04/30 00:05:09;;;;;;;3.43;1.77;;;;;;;;;;5051402;28;20573;-68
2023/04/30 00:07:40;;;;;;;2.50;1.80;;;;;;;;;;5050103;28;20787;-68
2023/04/30 00:10:08;;;;;;;3.10;2.47;;;;;;;;;;5051242;28;20537;-68
2023/04/30 00:12:37;;;;;;;2.20;1.53;;;;;;;;;;5050972;28;20451;-68
2023/04/30 00:15:04;;;;;;;4.90;2.23;;;;;;;;;;5051100;28;20511;-68
2023/04/30 00:17:31;;;;;;;2.70;1.77;;;;;;;;;;5051562;28;20450;-68
2023/04/30 00:19:58;;;;;;;2.50;1.73;;;;;;;;;;5050887;28;20454;-68
2023/04/30 00:22:25;;;;;;;2.30;1.87;;;;;;;;;;5051383;28;20787;-68
2023/04/30 00:24:52;;;;;;;2.10;1.47;;;;;;;;;;5050746;28;20454;-68
2023/04/30 00:27:19;;;;;;;2.27;1.73;;;;;;;;;;5051303;28;20449;-68
2023/04/30 00:29:48;;;;;;;2.60;1.73;;;;;;;;;;5050469;28;20486;-67
2023/04/30 00:32:15;;;;;;;2.47;1.93;;;;;;;;;;5051184;28;20450;-68
2023/04/30 00:34:42;;;;;;;2.43;1.73;;;;;;;;;;5050148;28;20878;-68
2023/04/30 00:37:09;;;;;;;3.87;1.80;;;;;;;;;;5051098;28;20463;-68
2023/04/30 00:39:36;;;;;;;3.50;2.00;;;;;;;;;;5050039;28;20446;-67
2023/04/30 00:42:03;;;;;;;2.80;1.90;;;;;;;;;;5050628;28;20458;-67
2023/04/30 00:44:31;;;;;;;2.60;2.30;;;;;;;;;;5050760;28;20462;-68
2023/04/30 00:46:59;;;;;;;2.20;2.00;;;;;;;;;;5050287;28;20453;-67
2023/04/30 00:49:26;;;;;;;2.77;1.80;;;;;;;;;;5050280;28;20474;-67
2023/04/30 00:51:53;;;;;;;2.50;1.73;;;;;;;;;;5050221;28;20465;-67
2023/04/30 00:54:21;;;;;;;3.07;2.13;;;;;;;;;;5050151;28;20482;-69
2023/04/30 00:56:48;;;;;;;2.77;2.07;;;;;;;;;;5049772;28;20930;-68
2023/04/30 00:59:15;;;;;;;3.43;2.40;;;;;;;;;;5050567;28;20502;-68
2023/04/30 01:01:42;;;;;;;3.97;2.57;;;;;;;;;;5049622;28;20446;-69
2023/04/30 01:04:11;;;;;;;2.77;2.57;;;;;;;;;;5050739;28;20473;-68
2023/04/30 01:06:38;;;;;;;2.90;2.07;;;;;;;;;;5049671;28;20973;-68
2023/04/30 01:09:05;;;;;;;2.70;1.73;;;;;;;;;;5049608;28;20485;-69
2023/04/30 01:11:38;;;;;;;3.57;2.20;;;;;;;;;;5050799;28;20458;-68
2023/04/30 01:14:08;;;;;;;2.90;2.03;;;;;;;;;;5050375;28;20464;-69
2023/04/30 01:16:36;;;;;;;2.37;2.10;;;;;;;;;;5049939;28;20523;-66
2023/04/30 01:19:06;;;;;;;5.13;2.70;;;;;;;;;;5048882;28;20473;-68
2023/04/30 01:21:37;;;;;;;3.17;2.20;;;;;;;;;;5049731;28;20454;-68
2023/04/30 01:24:22;;;;;;;2.40;2.10;;;;;;;;;;5049635;28;20458;-68
2023/04/30 01:26:54;;;;;;;3.83;2.33;;;;;;;;;;5049140;28;20958;-68
2023/04/30 01:29:22;;;;;;;3.20;2.67;;;;;;;;;;5036208;28;20516;-68
2023/04/30 01:31:49;;;;;;;4.60;2.00;;;;;;;;;;5048754;28;20464;-68
2023/04/30 01:34:17;;;;;;;3.00;2.60;;;;;;;;;;5050047;28;20810;-69
2023/04/30 01:36:53;;;;;;;3.03;1.97;;;;;;;;;;5049422;28;20481;-68
2023/04/30 01:39:23;;;;;;;4.20;2.30;;;;;;;;;;5049528;28;20943;-69
2023/04/30 01:41:55;;;;;;;4.67;3.00;;;;;;;;;;5049643;28;20450;-69
2023/04/30 01:44:41;;;;;;;4.83;2.50;;;;;;;;;;5050444;28;20516;-68
2023/04/30 01:47:13;;;;;;;5.83;2.80;;;;;;;;;;5050302;28;20993;-69
2023/04/30 01:49:52;;;;;;;2.97;2.40;;;;;;;;;;5049087;28;20473;-68
2023/04/30 01:52:21;;;;;;;4.90;2.23;;;;;;;;;;5049984;28;20488;-67
2023/04/30 01:54:51;;;;;;;4.30;2.93;;;;;;;;;;5049349;28;20489;-68
2023/04/30 01:57:19;;;;;;;4.10;2.50;;;;;;;;;;5050167;28;20457;-68
2023/04/30 01:59:47;;;;;;;6.47;4.17;;;;;;;;;;5049323;28;20779;-68
2023/04/30 02:02:14;;;;;;;4.10;2.10;;;;;;;;;;5050238;28;20811;-68
2023/04/30 02:04:41;;;;;;;3.33;2.20;;;;;;;;;;5049713;28;20541;-68
2023/04/30 02:07:09;;;;;;;4.20;2.60;;;;;;;;;;5050253;28;20458;-68
2023/04/30 02:09:36;;;;;;;3.73;2.37;;;;;;;;;;5048629;28;20582;-68
2023/04/30 02:12:03;;;;;;;4.37;2.23;;;;;;;;;;5050126;28;20812;-68
2023/04/30 02:14:31;;;;;;;3.43;2.30;;;;;;;;;;5049970;28;20450;-68
2023/04/30 02:17:00;;;;;;;2.70;2.17;;;;;;;;;;5049979;28;20601;-68
2023/04/30 02:19:27;;;;;;;3.17;2.30;;;;;;;;;;5049421;28;20465;-68
2023/04/30 02:21:54;;;;;;;2.57;2.13;;;;;;;;;;5049416;28;20453;-68
2023/04/30 02:24:21;;;;;;;4.27;2.77;;;;;;;;;;5049499;28;20461;-68
2023/04/30 02:26:48;;;;;;;5.00;3.10;;;;;;;;;;5049218;28;20446;-67
2023/04/30 02:29:16;;;;;;;3.83;2.80;;;;;;;;;;5049249;28;20485;-69
2023/04/30 02:31:43;;;;;;;5.60;3.13;;;;;;;;;;5052892;28;20457;-67
2023/04/30 02:34:11;;;;;;;2.60;2.10;;;;;;;;;;5053067;28;20962;-67
2023/04/30 02:36:38;;;;;;;2.17;1.97;;;;;;;;;;5052803;28;20456;-66
2023/04/30 02:39:05;;;;;;;3.13;1.93;;;;;;;;;;5039202;28;20458;-67
2023/04/30 02:41:33;;;;;;;4.13;3.50;;;;;;;;;;5053104;28;20789;-67
2023/04/30 02:44:00;;;;;;;3.30;2.37;;;;;;;;;;5053398;28;20453;-67
2023/04/30 02:46:27;;;;;;;3.17;2.60;;;;;;;;;;5052988;28;20453;-67
2023/04/30 02:48:54;;;;;;;2.73;2.07;;;;;;;;;;5052148;28;20761;-67
2023/04/30 02:51:23;;;;;;;2.43;2.03;;;;;;;;;;5053134;28;20447;-67
2023/04/30 02:53:50;;;;;;;4.30;3.07;;;;;;;;;;5052089;28;20462;-66
2023/04/30 02:56:17;;;;;;;11.30;4.30;;;;;;;;;;5052646;28;20443;-67
2023/04/30 02:58:45;;;;;;;7.27;4.27;;;;;;;;;;5051940;28;20451;-67
2023/04/30 03:01:12;;;;;;;4.70;2.87;;;;;;;;;;5052544;28;20485;-67
2023/04/30 03:03:39;;;;;;;5.70;3.23;;;;;;;;;;5052176;28;20454;-66
2023/04/30 03:06:07;;;;;;;4.03;3.23;;;;;;;;;;5052856;28;20462;-67
2023/04/30 03:08:35;;;;;;;8.43;4.17;;;;;;;;;;5051588;28;20891;-66
2023/04/30 03:11:02;;;;;;;7.90;3.30;;;;;;;;;;5052298;28;20549;-67
2023/04/30 03:13:29;;;;;;;4.63;3.40;;;;;;;;;;5052524;28;20973;-67
2023/04/30 03:16:00;;;;;;;5.40;3.43;;;;;;;;;;5051776;28;20927;-67
2023/04/30 03:18:27;;;;;;;4.77;3.50;;;;;;;;;;5052264;28;20454;-67
2023/04/30 03:20:54;;;;;;;6.90;3.30;;;;;;;;;;5052096;28;20447;-67
2023/04/30 03:23:21;;;;;;;6.03;3.30;;;;;;;;;;5052661;28;20461;-67
2023/04/30 03:25:50;;;;;;;6.50;4.03;;;;;;;;;;5051861;28;20457;-67
2023/04/30 03:28:17;;;;;;;9.33;3.70;;;;;;;;;;5052307;28;20818;-67
2023/04/30 03:30:44;;;;;;;4.80;3.60;;;;;;;;;;5051612;28;20486;-67
2023/04/30 03:33:11;;;;;;;6.60;3.73;;;;;;;;;;5052692;28;20534;-67
2023/04/30 03:35:39;;;;;;;4.87;3.43;;;;;;;;;;5051685;28;20446;-67
2023/04/30 03:38:06;;;;;;;6.60;3.23;;;;;;;;;;5052444;28;20454;-67
2023/04/30 03:40:33;;;;;;;5.57;3.33;;;;;;;;;;5051543;28;20451;-67
2023/04/30 03:43:01;;;;;;;4.20;2.97;;;;;;;;;;5051682;28;20457;-67
2023/04/30 03:45:28;;;;;;;5.17;2.93;;;;;;;;;;5052627;28;20453;-67
2023/04/30 03:47:55;;;;;;;4.70;3.40;;;;;;;;;;5051318;28;20461;-67
2023/04/30 03:50:23;;;;;;;5.90;2.80;;;;;;;;;;5037961;28;20486;-68
2023/04/30 03:52:50;;;;;;;4.60;3.63;;;;;;;;;;5051030;28;20450;-67
2023/04/30 03:55:17;;;;;;;6.13;3.47;;;;;;;;;;5051223;28;20489;-67
2023/04/30 03:57:44;;;;;;;4.60;3.30;;;;;;;;;;5050757;28;20457;-67
2023/04/30 04:00:14;;;;;;;4.60;3.07;;;;;;;;;;5051452;28;20458;-68
2023/04/30 04:02:41;;;;;;;5.30;3.83;;;;;;;;;;5050868;28;20817;-67
2023/04/30 04:05:09;;;;;;;5.00;3.67;;;;;;;;;;5051742;28;20776;-68
2023/04/30 04:07:36;;;;;;;5.40;3.30;;;;;;;;;;5051462;28;20458;-67
2023/04/30 04:10:03;;;;;;;5.00;4.17;;;;;;;;;;5051429;28;20492;-67
2023/04/30 04:12:31;;;;;;;4.43;3.33;;;;;;;;;;5052052;28;20453;-68
2023/04/30 04:14:58;;;;;;;6.67;4.10;;;;;;;;;;5051964;28;20466;-67
2023/04/30 04:17:26;;;;;;;7.10;3.40;;;;;;;;;;5051348;28;20454;-67
2023/04/30 04:19:53;;;;;;;3.90;3.40;;;;;;;;;;5050694;28;20454;-67
2023/04/30 04:22:20;;;;;;;4.63;3.10;;;;;;;;;;5051469;28;20457;-67
2023/04/30 04:24:47;;;;;;;5.17;3.80;;;;;;;;;;5050862;28;20466;-68
2023/04/30 04:27:15;;;;;;;6.50;3.90;;;;;;;;;;5051266;28;20962;-67
2023/04/30 04:29:42;;;;;;;4.67;3.23;;;;;;;;;;5050753;28;20841;-67
2023/04/30 04:32:10;;;;;;;5.60;3.70;;;;;;;;;;5051605;28;20447;-67
2023/04/30 04:34:39;;;;;;;5.53;3.23;;;;;;;;;;5050992;28;20470;-67
2023/04/30 04:37:06;;;;;;;5.13;3.17;;;;;;;;;;5051417;28;20829;-68
2023/04/30 04:39:35;;;;;;;5.67;3.53;;;;;;;;;;5050623;28;20555;-67
2023/04/30 04:42:02;;;;;;;5.07;3.23;;;;;;;;;;5051302;28;20477;-67
2023/04/30 04:44:29;;;;;;;8.13;3.40;;;;;;;;;;5051338;28;20454;-68
2023/04/30 04:46:56;;;;;;;5.27;2.80;;;;;;;;;;5050621;28;20454;-67
2023/04/30 04:49:23;;;;;;;6.80;4.00;;;;;;;;;;5050748;28;20478;-67
2023/04/30 04:51:52;;;;;;;3.73;2.87;;;;;;;;;;5050430;28;20524;-67
2023/04/30 04:54:20;;;;;;;4.30;3.40;;;;;;;;;;5043097;28;20481;-67
2023/04/30 04:56:47;;;;;;;5.80;3.60;;;;;;;;;;5050307;28;20448;-68
2023/04/30 04:59:14;;;;;;;5.37;3.20;;;;;;;;;;5050595;28;20455;-68
2023/04/30 05:01:42;;;;;;;5.67;3.90;;;;;;;;;;5050000;28;20446;-67
2023/04/30 05:04:09;;;;;;;4.80;2.90;;;;;;;;;;5050987;28;20549;-68
2023/04/30 05:06:36;;;;;;;4.40;3.13;;;;;;;;;;5050219;28;20458;-67
2023/04/30 05:09:07;;;;;;;4.20;3.07;;;;;;;;;;5050404;28;20457;-67
2023/04/30 05:11:34;;;;;;;5.67;3.57;;;;;;;;;;5049908;28;20503;-67
2023/04/30 05:14:01;;;;;;;4.17;3.37;;;;;;;;;;5050712;28;20476;-67
2023/04/30 05:16:28;;;;;;;3.87;3.07;;;;;;;;;;5050554;28;20609;-67
2023/04/30 05:18:56;;;;;;;8.50;5.13;;;;;;;;;;5049584;28;20833;-68
2023/04/30 05:21:24;;;;;;;5.27;3.63;;;;;;;;;;5050671;28;20469;-69
2023/04/30 05:23:51;;;;;;;7.63;2.90;;;;;;;;;;5049698;28;20592;-68
2023/04/30 05:26:22;;;;;;;7.70;3.53;;;;;;;;;;5050415;28;20465;-69
2023/04/30 05:28:49;;;;;;;4.70;3.60;;;;;;;;;;5049518;28;20541;-68
2023/04/30 05:31:16;;;;;;;7.77;3.93;;;;;;;;;;5050459;28;20998;-69
2023/04/30 05:33:43;;;;;;;7.57;4.00;;;;;;;;;;5049990;28;20446;-68
2023/04/30 05:36:10;;;;;;;7.17;3.73;;;;;;;;;;5050601;28;20458;-69
2023/04/30 05:38:37;;;;;;;6.30;4.03;;;;;;;;;;5049413;28;20450;-68
2023/04/30 05:41:05;;;;;;;6.63;3.70;;;;;;;;;;5050427;28;20453;-68
2023/04/30 05:43:33;;;;;;;6.27;3.57;;;;;;;;;;5050551;28;20810;-68
2023/04/30 05:46:01;;;;;;;5.13;3.57;;;;;;;;;;5050615;28;20446;-68
2023/04/30 05:48:28;;;;;;;6.73;4.07;;;;;;;;;;5049810;28;20950;-69
2023/04/30 05:50:55;;;;;;;5.43;3.47;;;;;;;;;;5049677;28;20481;-69
2023/04/30 05:53:22;;;;;;;6.87;3.83;;;;;;;;;;5049841;28;20473;-68
2023/04/30 05:55:49;;;;;;;6.77;3.70;;;;;;;;;;5048992;28;20501;-68
2023/04/30 05:58:16;;;;;;;5.57;3.30;;;;;;;;;;5049785;28;20551;-68
2023/04/30 06:00:45;;;;;;;3.90;2.70;;;;;;;;;;5049373;28;20450;-68
2023/04/30 06:03:12;;;;;;;4.60;3.30;;;;;;;;;;5050234;28;20442;-68
2023/04/30 06:05:40;;;;;;;5.47;3.80;;;;;;;;;;5052313;28;20812;-69
2023/04/30 06:08:07;;;;;;;5.43;3.17;;;;;;;;;;5053778;28;20507;-68
2023/04/30 06:10:34;;;;;;;5.90;3.53;;;;;;;;;;5053469;28;20478;-68
2023/04/30 06:13:01;;;;;;;5.23;3.47;;;;;;;;;;5053900;28;20489;-68
2023/04/30 06:15:28;;;;;;;6.27;4.37;;;;;;;;;;5053911;28;20457;-68
2023/04/30 06:17:57;;;;;;;4.33;2.50;;;;;;;;;;5052622;28;20530;-68
2023/04/30 06:20:25;;;;;;;4.87;2.83;;;;;;;;;;5053682;28;20461;-68
2023/04/30 06:22:53;;;;;;;4.47;2.87;;;;;;;;;;5052840;28;20714;-68
2023/04/30 06:25:20;;;;;;;5.83;3.70;;;;;;;;;;5053468;28;20450;-68
2023/04/30 06:27:47;;;;;;;5.63;3.27;;;;;;;;;;5052836;28;20511;-68
2023/04/30 06:30:14;;;;;;;4.67;2.90;;;;;;;;;;5052713;28;20478;-68
2023/04/30 06:32:41;;;;;;;3.43;2.40;;;;;;;;;;5052847;28;20477;-68
2023/04/30 06:35:10;;;;;;;4.73;2.80;;;;;;;;;;5053440;28;20520;-68
2023/04/30 06:37:37;;;;;;;3.23;1.90;;;;;;;;;;5052963;28;20945;-68
2023/04/30 06:40:05;;;;;;;4.60;3.00;;;;;;;;;;5053306;28;20810;-69
2023/04/30 06:42:33;;;;;;;3.53;2.57;;;;;;;;;;5053683;28;20461;-69
2023/04/30 06:45:01;;;;;;;4.13;2.80;;;;;;;;;;5053757;28;20485;-69
2023/04/30 06:47:28;;;;;;;5.67;3.37;;;;;;;;;;5053884;28;20446;-69
2023/04/30 06:49:55;;;;;;;4.80;3.90;;;;;;;;;;5052328;28;20509;-68
2023/04/30 06:52:24;;;;;;;5.47;3.20;;;;;;;;;;5053759;28;20957;-68
2023/04/30 06:54:51;;;;;;;4.67;2.70;;;;;;;;;;5052552;28;20485;-68
2023/04/30 06:57:18;;;;;;;4.20;2.87;;;;;;;;;;5053456;28;20446;-69
2023/04/30 06:59:45;;;;;;;4.37;3.20;;;;;;;;;;5052185;28;20947;-67
2023/04/30 07:02:12;;;;;;;4.47;2.60;;;;;;;;;;5053061;28;20969;-68
2023/04/30 07:04:40;;;;;;;3.50;2.60;;;;;;;;;;5052775;28;20469;-68
2023/04/30 07:07:07;;;;;;;3.10;2.40;;;;;;;;;;5053061;28;20451;-69
2023/04/30 07:09:35;;;;;;;3.77;2.87;;;;;;;;;;5052370;28;20816;-68
2023/04/30 07:12:03;;;;;;;3.80;2.73;;;;;;;;;;5053233;28;20916;-69
2023/04/30 07:14:30;;;;;;;3.70;2.30;;;;;;;;;;5053286;28;20454;-68
2023/04/30 07:16:57;;;;;;;5.00;2.60;;;;;;;;;;5052547;28;20446;-68
2023/04/30 07:19:25;;;;;;;4.83;2.77;;;;;;;;;;5052630;28;20466;-69
2023/04/30 07:21:52;;;;;;;4.27;2.80;;;;;;;;;;5052071;28;20601;-68
2023/04/30 07:24:19;;;;;;;19.30;4.20;;;;;;;;;;5053090;28;20776;-68
2023/04/30 07:26:48;;;;;;;4.40;2.50;;;;;;;;;;5052151;28;20450;-68
2023/04/30 07:29:15;;;;;;;6.03;3.30;;;;;;;;;;5052114;28;20442;-68
2023/04/30 07:31:42;;;;;;;5.10;3.60;;;;;;;;;;5052352;28;20493;-68
2023/04/30 07:34:09;;;;;;;4.80;3.00;;;;;;;;;;5052824;28;20570;-68
2023/04/30 07:36:37;;;;;;;3.27;2.70;;;;;;;;;;5052199;28;20454;-68
2023/04/30 07:39:05;;;;;;;3.87;2.70;;;;;;;;;;5051998;28;21058;-68
2023/04/30 07:41:32;;;;;;;5.33;2.97;;;;;;;;;;5052714;28;20463;-69
2023/04/30 07:44:00;;;;;;;4.80;2.60;;;;;;;;;;5052134;28;20447;-69
2023/04/30 07:46:27;;;;;;;3.60;2.90;;;;;;;;;;5052498;28;20446;-69
2023/04/30 07:48:54;;;;;;;3.50;2.93;;;;;;;;;;5051219;28;20445;-69
2023/04/30 07:51:21;;;;;;;2.87;2.10;;;;;;;;;;5052245;28;20478;-69
2023/04/30 07:53:48;;;;;;;4.50;2.30;;;;;;;;;;5051649;28;20465;-68
2023/04/30 07:56:15;;;;;;;3.40;2.57;;;;;;;;;;5051907;28;20438;-68
2023/04/30 07:58:43;;;;;;;7.20;3.63;;;;;;;;;;5051532;28;20476;-68
2023/04/30 08:01:11;;;;;;;5.27;2.50;;;;;;;;;;5052432;28;20450;-69
2023/04/30 08:03:38;;;;;;;3.97;2.17;;;;;;;;;;5051813;28;20473;-68
2023/04/30 08:06:05;;;;;;;2.57;2.00;;;;;;;;;;5051977;28;20517;-68
2023/04/30 08:08:33;;;;;;;3.87;2.43;;;;;;;;;;5051864;28;20454;-68
2023/04/30 08:11:00;;;;;;;3.43;2.07;;;;;;;;;;5051559;28;20489;-68
2023/04/30 08:13:27;;;;;;;2.70;1.90;;;;;;;;;;5052165;28;20446;-68
2023/04/30 08:15:54;;;;;;;4.60;2.30;;;;;;;;;;5051074;28;20455;-68
2023/04/30 08:18:22;;;;;;;3.13;2.00;;;;;;;;;;5051347;28;20936;-68
2023/04/30 08:20:49;;;;;;;3.30;2.27;;;;;;;;;;5051203;28;20465;-69
2023/04/30 08:23:16;;;;;;;3.03;2.27;;;;;;;;;;5051903;28;20442;-69
2023/04/30 08:25:44;;;;;;;3.87;2.10;;;;;;;;;;5050541;28;20935;-70
2023/04/30 08:28:11;;;;;;;3.40;2.20;;;;;;;;;;5050853;28;20473;-69
2023/04/30 08:30:38;;;;;;;2.90;2.00;;;;;;;;;;5050696;28;20482;-68
2023/04/30 08:33:05;;;;;;;2.43;1.93;;;;;;;;;;5051196;28;20965;-69
2023/04/30 08:35:33;;;;;;;2.10;1.70;;;;;;;;;;5051490;28;20450;-68
2023/04/30 08:38:00;;;;;;;2.83;1.70;;;;;;;;;;5050613;28;20983;-68
2023/04/30 08:40:27;;;;;;;2.53;1.87;;;;;;;;;;5051103;28;20473;-68
2023/04/30 08:43:00;;;;;;;4.07;2.40;;;;;;;;;;5050679;28;20454;-68
2023/04/30 08:45:28;;;;;;;3.00;2.13;;;;;;;;;;5051593;28;20442;-68
2023/04/30 08:47:58;;;;;;;5.60;2.50;;;;;;;;;;5050612;28;20798;-69
2023/04/30 08:50:25;;;;;;;2.67;1.63;;;;;;;;;;5038145;28;20500;-69
2023/04/30 08:52:53;;;;;;;3.47;1.90;;;;;;;;;;5044010;28;20832;-68
2023/04/30 08:55:20;;;;;;;2.00;1.30;;;;;;;;;;5051860;28;20850;-69
2023/04/30 08:57:47;;;;;;;2.90;1.60;;;;;;;;;;5050744;28;20446;-68
2023/04/30 09:00:15;;;;;;;2.37;1.93;;;;;;;;;;5051400;28;20452;-69
2023/04/30 09:02:42;;;;;;;3.67;2.10;;;;;;;;;;5050759;28;20451;-68
2023/04/30 09:05:11;;;;;;;1.90;1.27;;;;;;;;;;5051252;28;20939;-68
2023/04/30 09:07:41;;;;;;;3.27;1.97;;;;;;;;;;5049940;28;20453;-68
2023/04/30 09:10:15;;;;;;;3.47;1.80;;;;;;;;;;5051407;28;20454;-68
2023/04/30 09:12:44;;;;;;;3.37;1.70;;;;;;;;;;5050567;28;20482;-68
2023/04/30 09:15:12;;;;;;;2.37;1.57;;;;;;;;;;5051198;28;20533;-68
2023/04/30 09:17:39;;;;;;;3.40;1.77;;;;;;;;;;5050035;28;20442;-68
2023/04/30 09:20:10;;;;;;;2.73;1.60;;;;;;;;;;5050999;28;20449;-68
2023/04/30 09:22:38;;;;;;;2.53;1.40;;;;;;;;;;5050194;28;20453;-68
2023/04/30 09:25:06;;;;;;;2.33;1.77;;;;;;;;;;5050663;28;20450;-68
2023/04/30 09:27:34;;;;;;;2.47;1.50;;;;;;;;;;5050805;28;20454;-69
2023/04/30 09:30:02;;;;;;;3.10;1.50;;;;;;;;;;5050968;28;20588;-69
2023/04/30 09:32:29;;;;;;;2.90;1.93;;;;;;;;;;5050430;28;20847;-68
2023/04/30 09:34:56;;;;;;;1.80;1.50;;;;;;;;;;5049901;28;20504;-69
2023/04/30 09:37:35;;;;;;;2.47;2.03;;;;;;;;;;5050195;28;20465;-69
2023/04/30 09:40:03;;;;;;;3.13;1.70;;;;;;;;;;5052367;28;21070;-69
2023/04/30 09:42:30;;;;;;;3.47;2.43;;;;;;;;;;5054944;28;20560;-67
2023/04/30 09:44:58;;;;;;;2.43;1.67;;;;;;;;;;5054081;28;20442;-67
2023/04/30 09:47:31;;;;;;;3.47;2.00;;;;;;;;;;5054871;28;20457;-67
2023/04/30 09:50:00;;;;;;;4.10;2.60;;;;;;;;;;5054218;28;20443;-67
2023/04/30 09:52:27;;;;;;;4.63;2.03;;;;;;;;;;5054391;28;20504;-67
2023/04/30 09:54:54;;;;;;;3.70;2.20;;;;;;;;;;5053760;28;21255;-67
2023/04/30 09:57:23;;;;;;;2.80;1.97;;;;;;;;;;5054845;28;20442;-68
2023/04/30 09:59:52;;;;;;;1.73;1.07;;;;;;;;;;5053695;28;20454;-68
2023/04/30 10:02:22;;;;;;;1.80;0.97;;;;;;;;;;5054568;28;20454;-67
2023/04/30 10:04:50;;;;;;;3.40;1.50;;;;;;;;;;5053840;28;20474;-67
2023/04/30 10:07:18;;;;;;;2.10;1.87;;;;;;;;;;5054187;28;20457;-67
2023/04/30 10:09:47;;;;;;;2.20;1.53;;;;;;;;;;5053517;28;20450;-68
2023/04/30 10:12:14;;;;;;;2.43;1.33;;;;;;;;;;5054468;28;20500;-68
2023/04/30 10:14:45;;;;;;;2.23;1.40;;;;;;;;;;5054005;28;20496;-68
2023/04/30 10:17:14;;;;;;;1.80;1.10;;;;;;;;;;5054501;28;20480;-68
2023/04/30 10:19:46;;;;;;;1.70;1.10;;;;;;;;;;5053559;28;20481;-68
2023/04/30 10:22:13;;;;;;;1.97;1.50;;;;;;;;;;5054016;28;20457;-69
2023/04/30 10:24:43;;;;;;;2.07;1.07;;;;;;;;;;5053457;28;20965;-68
2023/04/30 10:27:10;;;;;;;1.90;1.37;;;;;;;;;;5054252;28;20511;-68
2023/04/30 10:29:37;;;;;;;1.60;1.10;;;;;;;;;;5054093;28;20458;-69
2023/04/30 10:32:05;;;;;;;1.87;1.23;;;;;;;;;;5054099;28;20486;-68
2023/04/30 10:34:38;;;;;;;2.07;1.00;;;;;;;;;;5054259;28;20476;-68
2023/04/30 10:37:09;;;;;;;2.17;1.40;;;;;;;;;;5053610;28;20441;-69
2023/04/30 10:39:38;;;;;;;2.07;1.20;;;;;;;;;;5053266;28;20802;-68
2023/04/30 10:42:05;;;;;;;2.40;1.20;;;;;;;;;;5054212;28;20458;-69
2023/04/30 10:44:33;;;;;;;2.60;1.40;;;;;;;;;;5053991;28;20450;-68
2023/04/30 10:47:01;;;;;;;1.83;1.50;;;;;;;;;;5053790;28;20454;-68
2023/04/30 10:49:28;;;;;;;2.83;1.60;;;;;;;;;;5053674;28;20485;-69
2023/04/30 10:51:57;;;;;;;2.47;1.60;;;;;;;;;;5052152;28;21033;-68
2023/04/30 10:54:27;;;;;;;1.87;1.20;;;;;;;;;;5053599;28;20505;-68
2023/04/30 10:56:57;;;;;;;1.80;1.40;;;;;;;;;;5039900;28;20457;-69
2023/04/30 10:59:24;;;;;;;1.63;1.07;;;;;;;;;;5052945;28;20640;-69
2023/04/30 11:01:58;;;;;;;3.20;2.00;;;;;;;;;;5053144;28;20457;-68
2023/04/30 11:04:25;;;;;;;2.23;1.67;;;;;;;;;;5053515;28;20454;-68
2023/04/30 11:06:56;;;;;;;2.73;1.57;;;;;;;;;;5052834;28;20875;-68
2023/04/30 11:09:37;;;;;;;2.60;1.93;;;;;;;;;;5052859;28;20462;-68
2023/04/30 11:12:05;;;;;;;3.40;1.97;;;;;;;;;;5053431;28;20476;-68
2023/04/30 11:14:33;;;;;;;1.70;1.40;;;;;;;;;;5053382;28;20545;-68
2023/04/30 11:17:01;;;;;;;2.63;1.53;;;;;;;;;;5052927;28;20950;-68
2023/04/30 11:19:28;;;;;;;2.70;1.97;;;;;;;;;;5052415;28;20454;-68
2023/04/30 11:22:14;;;;;;;2.33;1.30;;;;;;;;;;5052274;28;20512;-67
2023/04/30 11:24:52;;;;;;;2.40;1.97;;;;;;;;;;5040535;28;20465;-67
2023/04/30 11:27:23;;;;;;;2.60;1.70;;;;;;;;;;5052620;28;20450;-68
2023/04/30 11:29:51;;;;;;;3.57;2.60;;;;;;;;;;5052027;28;20810;-68
2023/04/30 11:32:18;;;;;;;2.20;1.40;;;;;;;;;;5052651;28;20485;-68
2023/04/30 11:34:46;;;;;;;2.47;1.40;;;;;;;;;;5051930;28;20810;-67
2023/04/30 11:37:14;;;;;;;2.10;1.33;;;;;;;;;;5052379;28;20525;-68
2023/04/30 11:39:42;;;;;;;2.03;1.70;;;;;;;;;;5051671;28;20931;-67
2023/04/30 11:42:11;;;;;;;5.33;1.27;;;;;;;;;;5052713;28;20493;-68
2023/04/30 11:44:38;;;;;;;2.30;1.60;;;;;;;;;;5051970;28;20454;-67
2023/04/30 11:47:06;;;;;;;2.40;1.77;;;;;;;;;;5051977;28;20451;-68
2023/04/30 11:49:34;;;;;;;2.63;1.77;;;;;;;;;;5052262;28;20512;-67
2023/04/30 11:52:01;;;;;;;4.33;1.80;;;;;;;;;;5052083;28;20501;-67
2023/04/30 11:54:28;;;;;;;2.67;1.60;;;;;;;;;;5052386;28;20814;-68
2023/04/30 11:57:01;;;;;;;3.60;1.77;;;;;;;;;;5038547;28;20521;-67
2023/04/30 11:59:29;;;;;;;2.47;1.70;;;;;;;;;;5052026;28;20443;-67
2023/04/30 12:01:57;;;;;;;1.70;1.37;;;;;;;;;;5050548;28;20447;-67
2023/04/30 12:04:24;;;;;;;2.07;1.20;;;;;;;;;;5051912;28;20520;-67
2023/04/30 12:06:51;;;;;;;2.53;1.27;;;;;;;;;;5051604;28;20447;-67
2023/04/30 12:09:18;;;;;;;1.60;1.33;;;;;;;;;;5051501;28;20461;-67
2023/04/30 12:11:45;;;;;;;3.10;1.47;;;;;;;;;;5051455;28;20500;-67
2023/04/30 12:14:14;;;;;;;2.50;1.43;;;;;;;;;;5052030;28;20469;-67
2023/04/30 12:16:47;;;;;;;2.43;1.30;;;;;;;;;;5051701;28;20446;-67
2023/04/30 12:19:14;;;;;;;1.70;1.40;;;;;;;;;;5051552;28;20450;-67
2023/04/30 12:21:43;;;;;;;2.07;1.60;;;;;;;;;;5051230;28;20931;-67
2023/04/30 12:24:11;;;;;;;1.97;1.47;;;;;;;;;;5051454;28;20454;-67
2023/04/30 12:26:39;;;;;;;2.13;1.10;;;;;;;;;;5054144;28;20442;-68
2023/04/30 12:29:09;;;;;;;2.07;1.40;;;;;;;;;;5051130;28;20500;-70
2023/04/30 12:31:37;;;;;;;2.50;1.60;;;;;;;;;;5050913;28;20442;-70
2023/04/30 12:34:06;;;;;;;3.23;2.20;;;;;;;;;;5051710;28;20453;-70
2023/04/30 12:36:35;;;;;;;5.47;2.43;;;;;;;;;;5050616;28;20812;-69
2023/04/30 12:39:12;;;;;;;2.77;1.40;;;;;;;;;;5051334;28;20450;-70
2023/04/30 12:41:41;;;;;;;5.17;3.30;;;;;;;;;;5051066;28;20522;-69
2023/04/30 12:44:14;;;;;;;7.80;4.67;;;;;;;;;;5051631;28;20492;-70
2023/04/30 12:46:42;;;;;;;2.33;2.10;;;;;;;;;;5050672;28;20457;-70
2023/04/30 12:49:11;;;;;;;2.87;1.83;;;;;;;;;;5050616;28;20927;-71
2023/04/30 12:51:39;;;;;;;2.37;1.70;;;;;;;;;;5050253;28;20443;-70
2023/04/30 12:54:06;;;;;;;3.90;2.57;;;;;;;;;;5049849;28;20482;-71
2023/04/30 12:56:34;;;;;;;5.47;3.80;;;;;;;;;;5050675;28;21039;-68
2023/04/30 12:59:01;;;;;;;2.93;2.03;;;;;;;;;;5049792;28;20542;-68
2023/04/30 13:01:29;;;;;;;1.87;1.60;;;;;;;;;;5055188;28;20998;-68
2023/04/30 13:03:57;;;;;;;2.23;1.40;;;;;;;;;;5048501;28;20447;-69
2023/04/30 13:06:26;;;;;;;3.30;1.23;;;;;;;;;;5047713;28;20828;-70
2023/04/30 13:08:54;;;;;;;2.40;1.63;;;;;;;;;;5047437;28;21437;-69
2023/04/30 13:11:21;;;;;;;2.90;1.40;;;;;;;;;;5048767;28;20458;-69
2023/04/30 13:13:48;;;;;;;2.27;1.60;;;;;;;;;;5048153;28;20921;-69
2023/04/30 13:16:15;;;;;;;3.87;1.70;;;;;;;;;;5048541;28;20871;-69
2023/04/30 13:18:42;;;;;;;2.10;1.43;;;;;;;;;;5047568;28;20446;-69
2023/04/30 13:21:10;;;;;;;2.00;1.53;;;;;;;;;;5048683;28;20545;-69
2023/04/30 13:23:38;;;;;;;2.30;1.70;;;;;;;;;;5045555;28;20458;-71
2023/04/30 13:26:05;;;;;;;2.53;2.10;;;;;;;;;;5048276;28;20809;-69
2023/04/30 13:28:33;;;;;;;1.80;1.37;;;;;;;;;;5047641;28;20462;-69
2023/04/30 13:31:01;;;;;;;1.73;1.20;;;;;;;;;;5048721;28;20450;-69
2023/04/30 13:33:28;;;;;;;1.53;1.10;;;;;;;;;;5048195;28;20570;-67
2023/04/30 13:35:55;;;;;;;2.03;1.37;;;;;;;;;;5048163;28;20481;-69
2023/04/30 13:38:22;;;;;;;2.27;1.83;;;;;;;;;;5048141;28;20453;-69
2023/04/30 13:40:51;;;;;;;1.67;1.30;;;;;;;;;;5035340;28;20443;-69
2023/04/30 13:43:18;;;;;;;2.50;1.37;;;;;;;;;;5048045;28;20462;-69
2023/04/30 13:45:45;;;;;;;2.10;1.40;;;;;;;;;;5047833;28;20458;-69
2023/04/30 13:48:12;;;;;;;2.00;1.60;;;;;;;;;;5047993;28;20450;-68
2023/04/30 13:50:39;;;;;;;1.87;1.53;;;;;;;;;;5047442;28;20450;-69
2023/04/30 13:53:06;;;;;;;2.37;1.70;;;;;;;;;;5047294;28;20489;-69
2023/04/30 13:55:34;;;;;;;1.97;1.47;;;;;;;;;;5046919;28;20473;-69
2023/04/30 13:58:02;;;;;;;2.13;1.20;;;;;;;;;;5047855;28;20454;-69
2023/04/30 14:00:29;;;;;;;2.17;1.40;;;;;;;;;;5048058;28;20492;-69
2023/04/30 14:02:56;;;;;;;2.20;1.60;;;;;;;;;;5047260;28;20458;-69
2023/04/30 14:05:23;;;;;;;2.03;1.70;;;;;;;;;;5047598;28;20454;-69
2023/04/30 14:07:51;;;;;;;1.87;1.13;;;;;;;;;;5046207;28;20453;-69
2023/04/30 14:10:18;;;;;;;1.77;1.50;;;;;;;;;;5047599;28;20452;-69
2023/04/30 14:12:45;;;;;;;1.83;1.40;;;;;;;;;;5046830;28;20478;-69
2023/04/30 14:15:14;;;;;;;1.30;1.00;;;;;;;;;;5047849;28;20455;-68
2023/04/30 14:17:41;;;;;;;2.50;1.80;;;;;;;;;;5046674;28;20536;-68
2023/04/30 14:20:10;;;;;;;2.80;2.00;;;;;;;;;;5047358;28;20447;-69
2023/04/30 14:22:38;;;;;;;1.90;1.30;;;;;;;;;;5044806;28;20458;-69
2023/04/30 14:25:05;;;;;;;1.77;1.30;;;;;;;;;;5047956;28;20466;-69
2023/04/30 14:27:32;;;;;;;1.97;1.30;;;;;;;;;;5051410;28;20450;-69
2023/04/30 14:29:59;;;;;;;2.60;1.60;;;;;;;;;;5051609;28;20457;-69
2023/04/30 14:32:28;;;;;;;2.80;1.57;;;;;;;;;;5051252;28;20486;-69
2023/04/30 14:34:55;;;;;;;6.97;5.30;;;;;;;;;;5050645;28;20507;-69
2023/04/30 14:37:22;;;;;;;5.17;4.10;;;;;;;;;;5051113;28;20450;-69
2023/04/30 14:39:49;;;;;;;20.63;11.80;;;;;;;;;;5050719;28;20865;-69
2023/04/30 14:42:16;;;;;;;18.50;13.80;;;;;;;;;;5051310;28;20457;-69
2023/04/30 14:44:44;;;;;;;21.63;15.90;;;;;;;;;;5050923;28;20457;-68
2023/04/30 14:47:12;;;;;;;2.47;1.60;;;;;;;;;;5037741;28;20446;-69